createdAt,value
2023-05-19T00:00:52.347Z,13.05
2023-05-19T00:01:55.098Z,13.17
2023-05-19T00:02:57.444Z,13.07
2023-05-19T00:04:02.823Z,13.12
2023-05-19T00:05:05.302Z,13.17
2023-05-19T00:06:10.781Z,13.23
2023-05-19T00:07:17.949Z,13.23
2023-05-19T00:08:22.721Z,13.17
2023-05-19T00:09:24.859Z,13.21
2023-05-19T00:10:31.744Z,13.12
2023-05-19T00:11:37.953Z,13.11
2023-05-19T00:12:40.378Z,13.08
2023-05-19T00:13:42.720Z,13.13
2023-05-19T00:14:44.842Z,13.08
2023-05-19T00:15:47.000Z,13.07
2023-05-19T00:16:49.100Z,13.06
2023-05-19T00:17:52.394Z,12.99
2023-05-19T00:18:54.432Z,12.93
2023-05-19T00:19:56.314Z,12.93
2023-05-19T00:20:58.245Z,13.02
2023-05-19T00:22:00.146Z,12.98
2023-05-19T00:23:02.355Z,12.97
2023-05-19T00:24:04.414Z,12.95
2023-05-19T00:25:06.914Z,12.98
2023-05-19T00:26:08.881Z,12.96
2023-05-19T00:27:11.018Z,13.07
2023-05-19T00:28:13.896Z,13.10
2023-05-19T00:29:19.541Z,13.12
2023-05-19T00:30:22.986Z,13.05
2023-05-19T00:31:25.142Z,13.13
2023-05-19T00:32:27.098Z,13.05
2023-05-19T00:33:29.511Z,12.94
2023-05-19T00:34:31.358Z,12.90
2023-05-19T00:35:33.435Z,12.92
2023-05-19T00:36:35.373Z,12.99
2023-05-19T00:37:37.245Z,12.89
2023-05-19T00:38:39.487Z,12.92
2023-05-19T00:39:41.427Z,12.91
2023-05-19T00:40:43.469Z,12.96
2023-05-19T00:41:45.530Z,12.95
2023-05-19T00:42:47.432Z,12.95
2023-05-19T00:43:50.976Z,12.97
2023-05-19T00:44:53.547Z,13.01
2023-05-19T00:45:55.478Z,12.95
2023-05-19T00:46:57.921Z,12.95
2023-05-19T00:47:59.995Z,12.89
2023-05-19T00:49:02.221Z,12.91
2023-05-19T00:50:04.581Z,12.93
2023-05-19T00:51:06.988Z,12.91
2023-05-19T00:52:08.995Z,12.79
2023-05-19T00:53:10.998Z,12.81
2023-05-19T00:54:13.179Z,12.88
2023-05-19T00:55:15.469Z,12.81
2023-05-19T00:56:18.360Z,12.71
2023-05-19T00:57:21.063Z,12.70
2023-05-19T00:58:23.912Z,12.74
2023-05-19T00:59:26.493Z,12.73
2023-05-19T01:00:30.013Z,12.73
2023-05-19T01:01:32.479Z,12.80
2023-05-19T01:02:35.090Z,12.85
2023-05-19T01:03:37.448Z,12.88
2023-05-19T01:04:41.902Z,12.80
2023-05-19T01:05:47.614Z,12.78
2023-05-19T01:06:55.810Z,12.83
2023-05-19T01:07:57.714Z,12.82
2023-05-19T01:09:00.015Z,12.84
2023-05-19T01:10:03.309Z,12.78
2023-05-19T01:11:06.832Z,12.80
2023-05-19T01:12:09.036Z,12.82
2023-05-19T01:13:11.299Z,12.84
2023-05-19T01:14:13.293Z,12.84
2023-05-19T01:15:16.053Z,12.78
2023-05-19T01:16:26.897Z,12.72
2023-05-19T01:17:57.001Z,12.78
2023-05-19T01:19:14.245Z,12.82
2023-05-19T01:20:22.758Z,12.82
2023-05-19T01:21:36.396Z,12.75
2023-05-19T01:22:50.598Z,12.69
2023-05-19T01:24:32.422Z,12.71
2023-05-19T01:25:37.552Z,12.69
2023-05-19T01:27:13.953Z,12.72
2023-05-19T01:28:43.890Z,12.72
2023-05-19T01:30:06.158Z,12.71
2023-05-19T01:31:12.049Z,12.79
2023-05-19T01:32:19.632Z,12.77
2023-05-19T01:33:23.901Z,12.71
2023-05-19T01:34:27.415Z,12.50
2023-05-19T01:35:30.903Z,12.59
2023-05-19T01:36:34.007Z,12.66
2023-05-19T01:37:38.871Z,12.63
2023-05-19T01:38:43.340Z,13.05
2023-05-19T01:39:45.692Z,12.94
2023-05-19T01:40:49.630Z,12.93
2023-05-19T01:41:55.008Z,12.69
2023-05-19T01:42:59.356Z,12.63
2023-05-19T01:44:02.225Z,12.85
2023-05-19T01:45:06.639Z,12.82
2023-05-19T01:46:09.083Z,12.78
2023-05-19T01:47:11.609Z,12.80
2023-05-19T01:48:14.878Z,12.69
2023-05-19T01:49:16.838Z,12.72
2023-05-19T01:50:20.708Z,12.67
2023-05-19T01:51:22.752Z,12.63
2023-05-19T01:52:24.983Z,12.57
2023-05-19T01:53:27.131Z,12.56
2023-05-19T01:54:29.068Z,12.54
2023-05-19T01:55:31.058Z,12.56
2023-05-19T01:56:47.068Z,12.63
2023-05-19T01:58:02.601Z,12.61
2023-05-19T01:59:16.876Z,12.61
2023-05-19T02:00:27.742Z,12.52
2023-05-19T02:01:36.797Z,12.57
2023-05-19T02:02:57.882Z,12.67
2023-05-19T02:04:05.680Z,12.76
2023-05-19T02:05:16.015Z,12.77
2023-05-19T02:06:33.070Z,12.56
2023-05-19T02:07:43.497Z,12.61
2023-05-19T02:08:51.288Z,12.87
2023-05-19T02:10:02.662Z,12.87
2023-05-19T02:11:13.967Z,12.75
2023-05-19T02:12:46.204Z,12.68
2023-05-19T02:13:53.507Z,12.52
2023-05-19T02:15:15.601Z,12.53
2023-05-19T02:16:18.398Z,12.60
2023-05-19T02:17:22.708Z,12.55
2023-05-19T02:18:25.144Z,12.57
2023-05-19T02:19:30.693Z,12.62
2023-05-19T02:20:32.953Z,12.65
2023-05-19T02:21:35.549Z,12.63
2023-05-19T02:22:37.464Z,12.64
2023-05-19T02:23:42.570Z,12.65
2023-05-19T02:24:46.610Z,12.68
2023-05-19T02:25:48.674Z,12.69
2023-05-19T02:26:52.140Z,12.72
2023-05-19T02:27:54.778Z,12.65
2023-05-19T02:28:56.604Z,12.51
2023-05-19T02:29:59.718Z,12.59
2023-05-19T02:31:01.722Z,12.62
2023-05-19T02:32:04.059Z,12.62
2023-05-19T02:33:06.663Z,12.65
2023-05-19T02:34:08.753Z,12.74
2023-05-19T02:35:11.774Z,12.75
2023-05-19T02:36:14.814Z,12.64
2023-05-19T02:37:17.749Z,12.53
2023-05-19T02:38:19.717Z,12.62
2023-05-19T02:39:21.594Z,12.63
2023-05-19T02:40:23.800Z,12.64
2023-05-19T02:41:25.984Z,12.64
2023-05-19T02:42:27.885Z,12.64
2023-05-19T02:43:30.646Z,12.60
2023-05-19T02:44:32.541Z,12.61
2023-05-19T02:45:34.667Z,12.54
2023-05-19T02:46:36.648Z,12.62
2023-05-19T02:47:38.909Z,12.65
2023-05-19T02:48:41.295Z,12.64
2023-05-19T02:49:44.254Z,12.61
2023-05-19T02:50:46.512Z,12.54
2023-05-19T02:51:48.463Z,12.59
2023-05-19T02:52:50.411Z,12.65
2023-05-19T02:53:52.370Z,12.67
2023-05-19T02:54:54.260Z,12.69
2023-05-19T02:55:56.451Z,12.72
2023-05-19T02:56:58.505Z,12.72
2023-05-19T02:58:00.367Z,12.77
2023-05-19T02:59:02.485Z,12.70
2023-05-19T03:00:05.883Z,12.60
2023-05-19T03:01:08.107Z,12.62
2023-05-19T03:02:10.045Z,12.59
2023-05-19T03:03:12.079Z,12.67
2023-05-19T03:04:14.058Z,12.62
2023-05-19T03:05:15.980Z,12.63
2023-05-19T03:06:18.288Z,12.60
2023-05-19T03:07:25.046Z,12.67
2023-05-19T03:08:26.940Z,12.64
2023-05-19T03:09:28.794Z,12.62
2023-05-19T03:10:31.083Z,12.62
2023-05-19T03:11:33.425Z,12.55
2023-05-19T03:12:35.517Z,12.50
2023-05-19T03:13:37.512Z,12.44
2023-05-19T03:14:39.475Z,12.42
2023-05-19T03:15:42.517Z,12.42
2023-05-19T03:16:44.951Z,12.44
2023-05-19T03:17:47.132Z,12.37
2023-05-19T03:18:49.151Z,12.40
2023-05-19T03:19:51.316Z,12.43
2023-05-19T03:20:56.577Z,12.44
2023-05-19T03:21:58.814Z,12.45
2023-05-19T03:23:01.284Z,12.49
2023-05-19T03:24:03.359Z,12.46
2023-05-19T03:25:05.624Z,12.42
2023-05-19T03:26:07.571Z,12.47
2023-05-19T03:27:09.792Z,12.50
2023-05-19T03:28:11.985Z,12.49
2023-05-19T03:29:13.949Z,12.54
2023-05-19T03:30:15.910Z,12.54
2023-05-19T03:31:19.636Z,12.57
2023-05-19T03:32:21.975Z,12.62
2023-05-19T03:33:24.041Z,12.61
2023-05-19T03:34:26.596Z,12.52
2023-05-19T03:35:28.695Z,12.41
2023-05-19T03:36:39.716Z,12.48
2023-05-19T03:37:43.220Z,12.38
2023-05-19T03:38:45.150Z,12.52
2023-05-19T03:39:47.035Z,12.54
2023-05-19T03:40:49.001Z,12.55
2023-05-19T03:41:51.333Z,12.56
2023-05-19T03:42:54.476Z,12.51
2023-05-19T03:43:56.414Z,12.49
2023-05-19T03:44:58.291Z,12.53
2023-05-19T03:46:00.535Z,12.62
2023-05-19T03:47:05.701Z,12.70
2023-05-19T03:48:09.974Z,12.73
2023-05-19T03:49:13.901Z,12.68
2023-05-19T03:50:16.566Z,12.71
2023-05-19T03:51:18.836Z,12.81
2023-05-19T03:52:20.874Z,12.82
2023-05-19T03:53:23.548Z,12.78
2023-05-19T03:54:26.212Z,12.78
2023-05-19T03:55:29.935Z,12.80
2023-05-19T03:56:32.891Z,12.77
2023-05-19T03:57:34.814Z,12.76
2023-05-19T03:58:39.339Z,12.83
2023-05-19T03:59:41.461Z,12.79
2023-05-19T04:00:43.719Z,12.83
2023-05-19T04:01:46.503Z,12.83
2023-05-19T04:02:48.717Z,12.73
2023-05-19T04:03:50.774Z,12.82
2023-05-19T04:04:53.830Z,12.86
2023-05-19T04:05:55.927Z,12.89
2023-05-19T04:06:58.320Z,12.99
2023-05-19T04:08:00.454Z,12.94
2023-05-19T04:09:03.870Z,12.86
2023-05-19T04:10:06.280Z,12.95
2023-05-19T04:11:08.213Z,12.98
2023-05-19T04:12:10.969Z,12.90
2023-05-19T04:13:12.871Z,13.02
2023-05-19T04:14:14.738Z,13.25
2023-05-19T04:15:18.390Z,13.24
2023-05-19T04:16:21.337Z,13.06
2023-05-19T04:17:26.383Z,12.98
2023-05-19T04:18:29.565Z,12.95
2023-05-19T04:19:31.692Z,13.02
2023-05-19T04:20:33.746Z,13.15
2023-05-19T04:21:35.862Z,13.13
2023-05-19T04:22:38.078Z,13.19
2023-05-19T04:23:40.131Z,13.27
2023-05-19T04:24:42.176Z,13.29
2023-05-19T04:25:44.237Z,13.23
2023-05-19T04:26:47.324Z,13.32
2023-05-19T04:27:50.009Z,13.39
2023-05-19T04:28:53.866Z,13.48
2023-05-19T04:29:56.142Z,13.53
2023-05-19T04:30:58.829Z,13.54
2023-05-19T04:32:01.178Z,13.50
2023-05-19T04:33:04.932Z,13.50
2023-05-19T04:34:10.216Z,13.61
2023-05-19T04:35:13.710Z,13.68
2023-05-19T04:36:17.457Z,13.72
2023-05-19T04:37:20.192Z,13.75
2023-05-19T04:38:22.511Z,13.80
2023-05-19T04:39:24.930Z,13.76
2023-05-19T04:40:27.357Z,13.84
2023-05-19T04:41:29.557Z,13.82
2023-05-19T04:42:33.039Z,13.87
2023-05-19T04:43:35.406Z,13.85
2023-05-19T04:44:40.138Z,13.94
2023-05-19T04:45:42.664Z,13.95
2023-05-19T04:46:45.329Z,13.90
2023-05-19T04:47:48.348Z,13.96
2023-05-19T04:48:50.693Z,14.03
2023-05-19T04:49:55.679Z,13.99
2023-05-19T04:50:57.877Z,13.89
2023-05-19T04:51:59.794Z,13.99
2023-05-19T04:53:02.072Z,13.97
2023-05-19T04:54:04.675Z,13.96
2023-05-19T04:55:08.721Z,13.92
2023-05-19T04:56:13.772Z,14.05
2023-05-19T04:57:15.701Z,14.18
2023-05-19T04:58:18.418Z,14.16
2023-05-19T04:59:23.282Z,14.17
2023-05-19T05:00:26.197Z,14.13
2023-05-19T05:01:31.259Z,14.17
2023-05-19T05:02:34.057Z,14.09
2023-05-19T05:03:36.209Z,14.07
2023-05-19T05:04:42.492Z,14.17
2023-05-19T05:05:44.496Z,14.10
2023-05-19T05:06:48.603Z,14.12
2023-05-19T05:07:50.933Z,14.21
2023-05-19T05:08:52.855Z,14.19
2023-05-19T05:09:55.398Z,14.26
2023-05-19T05:10:57.776Z,14.34
2023-05-19T05:12:00.716Z,14.45
2023-05-19T05:13:02.936Z,14.43
2023-05-19T05:14:05.333Z,14.42
2023-05-19T05:15:08.679Z,14.47
2023-05-19T05:16:12.131Z,14.47
2023-05-19T05:17:14.489Z,14.38
2023-05-19T05:18:17.134Z,14.37
2023-05-19T05:19:22.220Z,14.44
2023-05-19T05:20:24.983Z,14.39
2023-05-19T05:21:28.068Z,14.41
2023-05-19T05:22:30.185Z,14.43
2023-05-19T05:23:32.516Z,14.59
2023-05-19T05:24:34.694Z,14.63
2023-05-19T05:25:38.505Z,14.66
2023-05-19T05:26:40.679Z,14.68
2023-05-19T05:27:42.675Z,14.84
2023-05-19T05:28:44.713Z,14.89
2023-05-19T05:29:46.592Z,14.95
2023-05-19T05:30:50.321Z,14.97
2023-05-19T05:31:53.122Z,15.02
2023-05-19T05:32:55.814Z,15.08
2023-05-19T05:34:00.086Z,15.14
2023-05-19T05:35:02.975Z,15.18
2023-05-19T05:36:06.410Z,15.43
2023-05-19T05:37:09.233Z,16.05
2023-05-19T05:38:11.847Z,15.70
2023-05-19T05:39:13.977Z,15.69
2023-05-19T05:40:17.148Z,15.64
2023-05-19T05:41:19.447Z,15.69
2023-05-19T05:42:21.831Z,15.71
2023-05-19T05:43:24.040Z,15.81
2023-05-19T05:44:26.957Z,15.88
2023-05-19T05:45:29.257Z,15.78
2023-05-19T05:46:32.497Z,15.58
2023-05-19T05:47:38.117Z,15.32
2023-05-19T05:48:42.645Z,15.57
2023-05-19T05:49:48.227Z,15.62
2023-05-19T05:50:50.867Z,15.88
2023-05-19T05:52:04.944Z,16.01
2023-05-19T05:53:09.699Z,15.99
2023-05-19T05:54:12.757Z,16.05
2023-05-19T05:55:17.724Z,16.12
2023-05-19T05:56:20.847Z,16.15
2023-05-19T05:57:23.660Z,16.26
2023-05-19T05:58:25.886Z,16.44
2023-05-19T05:59:28.603Z,16.52
2023-05-19T06:00:31.148Z,16.55
2023-05-19T06:01:35.943Z,16.56
2023-05-19T06:02:38.935Z,16.62
2023-05-19T06:03:42.498Z,16.69
2023-05-19T06:04:45.147Z,16.77
2023-05-19T06:05:47.274Z,16.90
2023-05-19T06:06:49.553Z,16.94
2023-05-19T06:07:52.543Z,17.00
2023-05-19T06:08:54.732Z,17.07
2023-05-19T06:09:57.143Z,17.16
2023-05-19T06:10:59.706Z,17.06
2023-05-19T06:12:02.701Z,16.96
2023-05-19T06:13:05.616Z,17.06
2023-05-19T06:14:07.495Z,17.18
2023-05-19T06:15:10.963Z,17.23
2023-05-19T06:16:13.354Z,17.29
2023-05-19T06:17:15.630Z,17.09
2023-05-19T06:18:17.726Z,17.30
2023-05-19T06:19:20.208Z,17.53
2023-05-19T06:20:22.705Z,17.28
2023-05-19T06:21:24.658Z,17.24
2023-05-19T06:22:28.022Z,17.34
2023-05-19T06:23:31.120Z,17.33
2023-05-19T06:24:33.228Z,17.35
2023-05-19T06:25:35.283Z,17.41
2023-05-19T06:26:37.746Z,17.58
2023-05-19T06:27:40.128Z,17.69
2023-05-19T06:28:42.009Z,17.69
2023-05-19T06:29:43.960Z,17.43
2023-05-19T06:30:45.969Z,17.60
2023-05-19T06:31:49.418Z,17.67
2023-05-19T06:32:52.009Z,17.76
2023-05-19T06:33:54.182Z,18.23
2023-05-19T06:34:56.254Z,18.30
2023-05-19T06:35:58.194Z,18.22
2023-05-19T06:37:02.336Z,18.16
2023-05-19T06:38:05.735Z,18.08
2023-05-19T06:39:07.664Z,18.11
2023-05-19T06:40:11.798Z,18.14
2023-05-19T06:41:14.402Z,18.14
2023-05-19T06:42:16.512Z,18.16
2023-05-19T06:43:22.402Z,18.05
2023-05-19T06:44:26.028Z,17.94
2023-05-19T06:45:27.902Z,17.54
2023-05-19T06:46:30.173Z,17.25
2023-05-19T06:47:32.191Z,17.52
2023-05-19T06:48:34.456Z,17.65
2023-05-19T06:49:37.394Z,17.79
2023-05-19T06:50:39.417Z,17.82
2023-05-19T06:51:41.710Z,17.88
2023-05-19T06:52:44.329Z,17.85
2023-05-19T06:53:48.966Z,17.96
2023-05-19T06:54:50.960Z,18.11
2023-05-19T06:55:59.355Z,18.18
2023-05-19T06:57:01.903Z,18.08
2023-05-19T06:58:04.223Z,18.16
2023-05-19T06:59:06.445Z,18.21
2023-05-19T07:00:11.620Z,18.30
2023-05-19T07:01:14.511Z,18.28
2023-05-19T07:02:16.852Z,18.36
2023-05-19T07:03:18.972Z,18.51
2023-05-19T07:04:21.259Z,18.62
2023-05-19T07:05:23.174Z,18.70
2023-05-19T07:06:25.394Z,18.89
2023-05-19T07:07:27.472Z,18.92
2023-05-19T07:08:32.234Z,18.66
2023-05-19T07:09:35.585Z,18.91
2023-05-19T07:10:38.060Z,18.95
2023-05-19T07:11:41.492Z,18.84
2023-05-19T07:12:43.865Z,18.73
2023-05-19T07:13:45.822Z,18.65
2023-05-19T07:14:49.822Z,18.78
2023-05-19T07:15:56.001Z,18.96
2023-05-19T07:16:58.380Z,19.05
2023-05-19T07:18:00.579Z,18.79
2023-05-19T07:19:02.533Z,18.42
2023-05-19T07:20:10.045Z,18.17
2023-05-19T07:21:12.127Z,18.37
2023-05-19T07:22:14.882Z,18.29
2023-05-19T07:23:17.464Z,18.14
2023-05-19T07:24:22.196Z,18.35
2023-05-19T07:25:26.140Z,18.54
2023-05-19T07:26:28.783Z,18.29
2023-05-19T07:27:30.629Z,18.34
2023-05-19T07:28:34.355Z,18.49
2023-05-19T07:29:36.932Z,18.35
2023-05-19T07:30:39.116Z,18.41
2023-05-19T07:31:41.054Z,18.41
2023-05-19T07:32:43.077Z,18.46
2023-05-19T07:33:45.160Z,18.34
2023-05-19T07:34:47.244Z,18.67
2023-05-19T07:35:49.408Z,18.92
2023-05-19T07:36:52.120Z,19.22
2023-05-19T07:37:54.078Z,19.57
2023-05-19T07:38:56.215Z,19.74
2023-05-19T07:39:58.233Z,19.75
2023-05-19T07:41:01.834Z,19.83
2023-05-19T07:42:03.879Z,20.04
2023-05-19T07:43:05.989Z,20.34
2023-05-19T07:44:08.006Z,20.41
2023-05-19T07:45:10.396Z,20.23
2023-05-19T07:46:12.595Z,20.27
2023-05-19T07:47:14.685Z,20.25
2023-05-19T07:48:18.737Z,20.30
2023-05-19T07:49:20.654Z,20.03
2023-05-19T07:50:22.604Z,19.98
2023-05-19T07:51:24.826Z,19.95
2023-05-19T07:52:26.841Z,20.02
2023-05-19T07:53:28.875Z,20.33
2023-05-19T07:54:30.756Z,20.55
2023-05-19T07:55:32.621Z,20.56
2023-05-19T07:56:34.790Z,20.85
2023-05-19T07:57:36.781Z,21.06
2023-05-19T07:58:38.688Z,21.12
2023-05-19T07:59:40.808Z,21.18
2023-05-19T08:00:43.438Z,21.23
2023-05-19T08:01:45.935Z,21.38
2023-05-19T08:02:48.050Z,21.30
2023-05-19T08:03:50.180Z,21.32
2023-05-19T08:04:53.196Z,21.30
2023-05-19T08:05:55.459Z,20.73
2023-05-19T08:06:57.648Z,20.64
2023-05-19T08:07:59.555Z,20.77
2023-05-19T08:09:01.849Z,20.89
2023-05-19T08:10:04.271Z,21.12
2023-05-19T08:11:06.671Z,21.39
2023-05-19T08:12:08.843Z,21.49
2023-05-19T08:13:10.864Z,21.65
2023-05-19T08:14:13.066Z,21.38
2023-05-19T08:15:14.898Z,21.09
2023-05-19T08:16:16.880Z,21.08
2023-05-19T08:17:19.261Z,21.01
2023-05-19T08:18:21.341Z,21.10
2023-05-19T08:19:23.301Z,21.08
2023-05-19T08:20:25.266Z,20.98
2023-05-19T08:21:27.155Z,20.70
2023-05-19T08:22:29.416Z,20.46
2023-05-19T08:23:31.814Z,20.25
2023-05-19T08:24:33.922Z,20.46
2023-05-19T08:25:35.895Z,20.46
2023-05-19T08:26:38.071Z,20.66
2023-05-19T08:27:40.487Z,20.74
2023-05-19T08:28:42.433Z,20.56
2023-05-19T08:29:44.340Z,20.41
2023-05-19T08:30:46.280Z,20.66
2023-05-19T08:31:48.297Z,20.69
2023-05-19T08:32:50.611Z,20.61
2023-05-19T08:33:52.888Z,20.67
2023-05-19T08:34:54.743Z,20.64
2023-05-19T08:35:58.178Z,20.62
2023-05-19T08:37:00.164Z,20.56
2023-05-19T08:38:02.360Z,20.52
2023-05-19T08:39:04.592Z,20.46
2023-05-19T08:40:08.820Z,20.42
2023-05-19T08:41:10.957Z,20.72
2023-05-19T08:42:12.892Z,20.71
2023-05-19T08:43:15.349Z,20.55
2023-05-19T08:44:19.020Z,20.98
2023-05-19T08:45:21.111Z,20.86
2023-05-19T08:46:25.329Z,20.88
2023-05-19T08:47:28.294Z,21.01
2023-05-19T08:48:33.885Z,21.06
2023-05-19T08:49:42.976Z,20.89
2023-05-19T08:50:53.800Z,20.99
2023-05-19T08:51:58.230Z,20.97
2023-05-19T08:53:28.983Z,20.68
2023-05-19T08:54:44.867Z,20.53
2023-05-19T08:56:00.997Z,20.38
2023-05-19T08:57:03.063Z,20.46
2023-05-19T08:58:05.127Z,20.37
2023-05-19T08:59:07.950Z,20.24
2023-05-19T09:00:13.358Z,20.32
2023-05-19T09:01:18.749Z,20.33
2023-05-19T09:02:22.720Z,20.71
2023-05-19T09:03:26.546Z,21.06
2023-05-19T09:04:30.207Z,21.44
2023-05-19T09:05:33.176Z,21.58
2023-05-19T09:06:35.407Z,21.72
2023-05-19T09:07:37.904Z,21.71
2023-05-19T09:08:43.550Z,21.90
2023-05-19T09:09:45.690Z,21.95
2023-05-19T09:10:47.920Z,21.92
2023-05-19T09:11:49.785Z,21.81
2023-05-19T09:12:52.542Z,21.89
2023-05-19T09:13:54.564Z,21.85
2023-05-19T09:14:57.887Z,21.90
2023-05-19T09:16:00.351Z,22.02
2023-05-19T09:17:02.702Z,22.12
2023-05-19T09:18:12.382Z,21.93
2023-05-19T09:19:17.566Z,21.54
2023-05-19T09:20:19.496Z,21.60
2023-05-19T09:21:31.012Z,21.68
2023-05-19T09:22:35.776Z,21.75
2023-05-19T09:23:37.678Z,21.71
2023-05-19T09:24:40.482Z,21.68
2023-05-19T09:25:49.939Z,21.63
2023-05-19T09:26:55.224Z,21.63
2023-05-19T09:27:57.967Z,21.66
2023-05-19T09:28:59.863Z,21.67
2023-05-19T09:30:09.275Z,21.42
2023-05-19T09:31:11.909Z,21.72
2023-05-19T09:32:25.425Z,21.89
2023-05-19T09:33:28.644Z,21.75
2023-05-19T09:34:30.704Z,21.83
2023-05-19T09:35:34.841Z,21.61
2023-05-19T09:36:40.009Z,21.59
2023-05-19T09:37:42.895Z,21.85
2023-05-19T09:38:45.936Z,22.03
2023-05-19T09:39:52.051Z,22.07
2023-05-19T09:40:57.260Z,22.33
2023-05-19T09:41:59.175Z,22.37
2023-05-19T09:43:05.504Z,22.64
2023-05-19T09:44:07.480Z,22.69
2023-05-19T09:45:09.773Z,22.72
2023-05-19T09:46:13.791Z,22.56
2023-05-19T09:47:16.875Z,22.49
2023-05-19T09:48:19.091Z,22.38
2023-05-19T09:49:25.707Z,22.34
2023-05-19T09:50:30.703Z,22.37
2023-05-19T09:51:33.125Z,22.37
2023-05-19T09:52:39.050Z,22.23
2023-05-19T09:53:42.127Z,22.21
2023-05-19T09:54:45.398Z,22.05
2023-05-19T09:55:48.607Z,22.17
2023-05-19T09:57:07.106Z,21.93
2023-05-19T09:58:12.609Z,21.72
2023-05-19T09:59:16.351Z,21.74
2023-05-19T10:00:19.703Z,21.58
2023-05-19T10:01:23.126Z,21.56
2023-05-19T10:02:26.486Z,21.56
2023-05-19T10:03:28.752Z,21.57
2023-05-19T10:04:31.392Z,21.66
2023-05-19T10:05:34.476Z,21.63
2023-05-19T10:06:37.059Z,21.64
2023-05-19T10:07:40.616Z,21.68
2023-05-19T10:08:43.589Z,21.70
2023-05-19T10:09:46.433Z,21.89
2023-05-19T10:10:48.372Z,22.07
2023-05-19T10:11:53.293Z,21.94
2023-05-19T10:12:55.903Z,21.94
2023-05-19T10:13:58.318Z,21.80
2023-05-19T10:15:00.413Z,22.37
2023-05-19T10:16:03.380Z,22.30
2023-05-19T10:17:08.034Z,22.33
2023-05-19T10:18:10.964Z,22.56
2023-05-19T10:19:14.254Z,22.88
2023-05-19T10:20:17.345Z,23.17
2023-05-19T10:21:19.245Z,23.24
2023-05-19T10:22:21.790Z,23.05
2023-05-19T10:23:24.234Z,22.79
2023-05-19T10:24:26.729Z,22.62
2023-05-19T10:25:31.373Z,22.62
2023-05-19T10:26:35.342Z,22.50
2023-05-19T10:27:40.882Z,22.60
2023-05-19T10:28:45.549Z,22.63
2023-05-19T10:29:50.684Z,22.87
2023-05-19T10:30:56.594Z,23.10
2023-05-19T10:32:03.102Z,23.25
2023-05-19T10:33:10.352Z,23.28
2023-05-19T10:34:54.269Z,23.17
2023-05-19T10:36:02.686Z,23.05
2023-05-19T10:37:28.818Z,22.63
2023-05-19T10:38:40.215Z,22.68
2023-05-19T10:39:44.547Z,23.04
2023-05-19T10:41:11.768Z,23.35
2023-05-19T10:42:24.049Z,23.65
2023-05-19T10:43:47.421Z,23.81
2023-05-19T10:45:02.620Z,23.77
2023-05-19T10:46:05.599Z,23.42
2023-05-19T10:47:08.675Z,23.15
2023-05-19T10:48:13.980Z,22.99
2023-05-19T10:49:22.706Z,22.85
2023-05-19T10:50:25.032Z,22.82
2023-05-19T10:51:33.948Z,23.05
2023-05-19T10:52:40.111Z,23.18
2023-05-19T10:53:46.356Z,23.19
2023-05-19T10:54:48.320Z,23.28
2023-05-19T10:55:59.373Z,23.58
2023-05-19T10:57:01.243Z,23.77
2023-05-19T10:58:03.777Z,23.77
2023-05-19T10:59:05.922Z,23.83
2023-05-19T11:00:28.172Z,23.62
2023-05-19T11:01:35.551Z,23.64
2023-05-19T11:02:42.955Z,23.52
2023-05-19T11:03:47.266Z,23.45
2023-05-19T11:04:54.167Z,23.24
2023-05-19T11:06:21.043Z,22.95
2023-05-19T11:07:24.796Z,22.91
2023-05-19T11:08:33.679Z,23.00
2023-05-19T11:09:41.118Z,23.17
2023-05-19T11:10:48.593Z,23.02
2023-05-19T11:11:54.553Z,22.58
2023-05-19T11:12:59.868Z,22.65
2023-05-19T11:14:01.781Z,22.64
2023-05-19T11:15:04.059Z,22.60
2023-05-19T11:16:09.332Z,22.37
2023-05-19T11:17:15.314Z,22.28
2023-05-19T11:18:19.065Z,22.37
2023-05-19T11:19:31.231Z,22.59
2023-05-19T11:20:34.998Z,22.61
2023-05-19T11:21:48.265Z,22.66
2023-05-19T11:23:11.129Z,22.69
2023-05-19T11:24:40.154Z,22.81
2023-05-19T11:25:45.142Z,23.12
2023-05-19T11:26:47.560Z,23.28
2023-05-19T11:27:51.396Z,23.36
2023-05-19T11:28:53.734Z,23.37
2023-05-19T11:30:11.548Z,23.54
2023-05-19T11:31:13.558Z,23.62
2023-05-19T11:32:16.444Z,23.70
2023-05-19T11:33:19.969Z,23.44
2023-05-19T11:34:25.961Z,23.58
2023-05-19T11:35:29.606Z,23.61
2023-05-19T11:36:31.812Z,23.53
2023-05-19T11:37:34.657Z,23.32
2023-05-19T11:38:36.724Z,23.58
2023-05-19T11:39:39.880Z,23.60
2023-05-19T11:40:43.643Z,23.42
2023-05-19T11:41:45.593Z,23.33
2023-05-19T11:42:47.495Z,23.37
2023-05-19T11:43:49.428Z,23.60
2023-05-19T11:44:55.932Z,23.77
2023-05-19T11:45:58.267Z,23.82
2023-05-19T11:47:01.000Z,23.95
2023-05-19T11:48:03.536Z,23.90
2023-05-19T11:49:05.826Z,23.70
2023-05-19T11:50:10.848Z,23.67
2023-05-19T11:51:13.271Z,23.63
2023-05-19T11:52:15.590Z,23.67
2023-05-19T11:53:19.537Z,23.58
2023-05-19T11:54:21.631Z,23.70
2023-05-19T11:55:23.796Z,23.70
2023-05-19T11:56:26.118Z,23.60
2023-05-19T11:57:28.044Z,23.68
2023-05-19T11:58:30.499Z,23.90
2023-05-19T11:59:35.781Z,23.85
2023-05-19T12:00:40.879Z,23.83
2023-05-19T12:01:43.486Z,23.79
2023-05-19T12:02:45.642Z,24.00
2023-05-19T12:03:49.738Z,24.07
2023-05-19T12:04:52.737Z,23.96
2023-05-19T12:05:54.818Z,24.12
2023-05-19T12:06:57.132Z,24.24
2023-05-19T12:08:00.960Z,24.38
2023-05-19T12:09:05.330Z,24.41
2023-05-19T12:10:08.465Z,24.51
2023-05-19T12:11:10.589Z,24.53
2023-05-19T12:12:23.437Z,24.17
2023-05-19T12:13:25.570Z,24.14
2023-05-19T12:14:31.107Z,24.26
2023-05-19T12:15:33.712Z,24.42
2023-05-19T12:16:35.861Z,24.42
2023-05-19T12:17:38.107Z,24.31
2023-05-19T12:18:43.065Z,24.21
2023-05-19T12:19:46.177Z,24.07
2023-05-19T12:20:48.261Z,24.07
2023-05-19T12:21:50.988Z,24.21
2023-05-19T12:22:55.187Z,24.25
2023-05-19T12:23:57.158Z,24.24
2023-05-19T12:24:59.508Z,24.19
2023-05-19T12:26:01.958Z,24.19
2023-05-19T12:27:07.531Z,23.87
2023-05-19T12:28:09.759Z,23.94
2023-05-19T12:29:13.418Z,23.98
2023-05-19T12:30:16.557Z,23.89
2023-05-19T12:31:19.049Z,23.90
2023-05-19T12:32:25.670Z,23.98
2023-05-19T12:33:28.025Z,23.93
2023-05-19T12:34:30.524Z,24.23
2023-05-19T12:35:34.161Z,24.22
2023-05-19T12:36:37.128Z,24.35
2023-05-19T12:37:42.602Z,24.25
2023-05-19T12:38:45.884Z,24.25
2023-05-19T12:39:49.347Z,24.32
2023-05-19T12:40:51.482Z,24.39
2023-05-19T12:41:53.525Z,24.29
2023-05-19T12:42:59.094Z,24.27
2023-05-19T12:44:01.586Z,24.33
2023-05-19T12:45:04.705Z,24.40
2023-05-19T12:46:13.710Z,24.34
2023-05-19T12:47:17.029Z,24.26
2023-05-19T12:48:22.731Z,24.35
2023-05-19T12:49:25.005Z,24.34
2023-05-19T12:50:31.472Z,24.37
2023-05-19T12:51:33.668Z,24.52
2023-05-19T12:52:43.658Z,24.54
2023-05-19T12:53:46.333Z,24.54
2023-05-19T12:54:48.895Z,24.51
2023-05-19T12:55:52.784Z,24.57
2023-05-19T12:56:57.841Z,24.31
2023-05-19T12:57:59.816Z,24.32
2023-05-19T12:59:02.143Z,24.45
2023-05-19T13:00:14.156Z,24.51
2023-05-19T13:01:17.890Z,24.65
2023-05-19T13:02:21.030Z,24.70
2023-05-19T13:03:23.095Z,24.70
2023-05-19T13:04:26.426Z,24.58
2023-05-19T13:05:29.980Z,24.57
2023-05-19T13:06:33.138Z,24.48
2023-05-19T13:07:35.676Z,24.30
2023-05-19T13:08:41.261Z,24.31
2023-05-19T13:09:43.159Z,24.35
2023-05-19T13:10:47.099Z,24.29
2023-05-19T13:11:51.273Z,24.33
2023-05-19T13:12:54.704Z,24.44
2023-05-19T13:13:57.681Z,24.47
2023-05-19T13:15:00.116Z,24.57
2023-05-19T13:16:02.348Z,24.68
2023-05-19T13:17:04.403Z,24.80
2023-05-19T13:18:10.953Z,24.84
2023-05-19T13:19:25.377Z,24.87
2023-05-19T13:20:28.633Z,24.86
2023-05-19T13:21:31.231Z,24.86
2023-05-19T13:22:33.113Z,24.82
2023-05-19T13:23:35.012Z,24.76
2023-05-19T13:24:36.926Z,24.67
2023-05-19T13:25:39.234Z,24.56
2023-05-19T13:26:41.795Z,24.50
2023-05-19T13:27:48.007Z,24.36
2023-05-19T13:28:50.006Z,24.34
2023-05-19T13:29:52.030Z,24.31
2023-05-19T13:30:55.221Z,24.29
2023-05-19T13:31:59.137Z,24.28
2023-05-19T13:33:03.098Z,23.96
2023-05-19T13:34:05.069Z,23.88
2023-05-19T13:35:07.388Z,23.80
2023-05-19T13:36:09.274Z,23.58
2023-05-19T13:37:12.217Z,23.48
2023-05-19T13:38:14.601Z,23.65
2023-05-19T13:39:16.716Z,23.64
2023-05-19T13:40:19.197Z,23.74
2023-05-19T13:41:27.109Z,23.77
2023-05-19T13:42:29.289Z,23.57
2023-05-19T13:43:31.588Z,23.62
2023-05-19T13:44:33.450Z,23.71
2023-05-19T13:45:35.420Z,23.78